Have a Safe July 4th! 

Flight Track Log - Related Links

Times and Time Zones

All times are in EDT time to prevent confusion due to time zone crossing. See the OPT332 flight status page for this flight to view local times or setup timezone preferences in your user account.

Time Position Orientation Groundspeed Altitude Reporting Facility
EDT Latitude Longitude Course Direction KTS MPH feet Rate Location/Type
Fri 02:26:16 PM 34.8848 -85.1823 166° South 255 293 9,600  Level FlightAware ADS-B
Fri 02:26:47 PM 34.8493 -85.1712 166° South 263 303 11,300 3,246 Climbing FlightAware ADS-B
Fri 02:27:17 PM 34.8131 -85.1600 166° South 270 311 12,900 3,055 Climbing FlightAware ADS-B
Fri 02:27:42 PM 34.7813 -85.1502 166° South 278 320 14,100 2,737 Climbing FlightAware ADS-B
Fri 02:28:14 PM 34.7410 -85.1379 166° South 286 329 15,500 2,516 Climbing FlightAware ADS-B
Fri 02:28:44 PM 34.7010 -85.1257 166° South 299 344 16,700 2,262 Climbing FlightAware ADS-B
Fri 02:29:15 PM 34.6588 -85.1128 166° South 310 357 17,800 2,262 Climbing FlightAware ADS-B
Fri 02:29:45 PM 34.6159 -85.0997 166° South 318 366 19,000 2,323 Climbing FlightAware ADS-B
Fri 02:30:17 PM 34.5707 -85.0860 166° South 323 372 20,200 2,381 Climbing FlightAware ADS-B
Fri 02:30:48 PM 34.5251 -85.0720 166° South 322 371 21,500 1,770 Climbing FlightAware ADS-B
Fri 02:31:18 PM 34.4794 -85.0582 166° South 342 394 22,000 1,000 Climbing FlightAware ADS-B
Fri 02:31:48 PM 34.4322 -85.0438 166° South 358 412 22,500 984 Climbing FlightAware ADS-B
Fri 02:32:19 PM 34.3826 -85.0289 166° South 371 427 23,000 492 Climbing FlightAware ADS-B
Fri 02:32:49 PM 34.3289 -85.0126 166° South 396 456 23,000  Level FlightAware ADS-B
Fri 02:33:20 PM 34.2731 -84.9957 166° South 406 467 23,000  Level FlightAware ADS-B
Fri 02:33:50 PM 34.2182 -84.9791 166° South 403 464 23,000  Level FlightAware ADS-B
Fri 02:34:22 PM 34.1607 -84.9616 166° South 401 461 23,000  Level FlightAware ADS-B
Fri 02:34:54 PM 34.1036 -84.9445 166° South 399 459 23,000  Level FlightAware ADS-B
Fri 02:35:28 PM 34.0429 -84.9262 166° South 399 459 23,000  Level FlightAware ADS-B
Fri 02:35:58 PM 33.9887 -84.9099 166° South 399 459 23,000  Level FlightAware ADS-B
Fri 02:36:30 PM 33.9301 -84.8923 166° South 399 459 23,000  Level FlightAware ADS-B
Fri 02:37:23 PM 33.8360 -84.8641 166° South 398 458 23,000  Level FlightAware ADS-B
Fri 02:38:45 PM 33.7083 -84.8256 166° South 404 465 23,000  Level Atlanta Center
Fri 02:39:45 PM 33.5894 -84.7944 168° South 399 459 23,000  Level Atlanta Center
Fri 02:40:45 PM 33.4811 -84.7636 167° South 399 459 23,000  Level Atlanta Center
Fri 02:41:45 PM 33.3750 -84.7303 165° South 399 459 23,000  Level Atlanta Center
Fri 02:42:45 PM 33.2664 -84.7022 168° South 399 459 23,000  Level Atlanta Center
Fri 02:43:45 PM 33.1706 -84.6742 166° South 394 453 23,000  Level Atlanta Center
Fri 02:44:45 PM 33.0603 -84.6411 166° South 394 453 23,000  Level Atlanta Center
Fri 02:45:45 PM 32.9558 -84.6083 165° South 389 448 23,000  Level Atlanta Center
Fri 02:46:45 PM 32.8497 -84.5778 166° South 396 456 23,000  Level Atlanta Center
Fri 02:47:45 PM 32.7392 -84.5425 165° South 396 456 23,000  Level Atlanta Center
Fri 02:48:45 PM 32.6225 -84.5075 166° South 396 456 23,000 -1,050 Level Atlanta Center
Fri 02:49:45 PM 32.5181 -84.4797 167° South 409 471 20,900 -2,150 Descending Atlanta Center
Fri 02:50:45 PM 32.4056 -84.4447 165° South 414 476 18,700 -2,250 Descending Atlanta Center
Fri 02:51:45 PM 32.2844 -84.4122 167° South 419 482 16,400 -2,159 Descending Atlanta Center
Fri 02:53:29 PM 32.1058 -84.3592 166° South 400 460 12,800 -1,939 Descending Jacksonville Center
Fri 02:54:29 PM 32.0039 -84.3306 167° South 390 449 11,100 -950 Descending Jacksonville Center
Fri 02:55:29 PM 31.9039 -84.2997 165° South 372 428 10,900 -1,150 Descending Jacksonville Center
Fri 02:56:29 PM 31.8228 -84.2789 168° South 340 391 8,800 -2,250 Descending Jacksonville Center
Fri 02:57:29 PM 31.7481 -84.2533 164° South 306 352 6,400 -2,450 Descending Jacksonville Center
Fri 02:58:29 PM 31.6731 -84.2328 167° South 288 331 3,900 -2,100 Descending Jacksonville Center
Fri 02:59:29 PM 31.6042 -84.2147 167° South 271 312 2,200 -1,050 Descending Jacksonville Center
Fri 03:00:29 PM 31.5500 -84.2236 188° South 211 243 1,800 -550 Descending Jacksonville Center
Fri 03:01:29 PM 31.5142 -84.2428 205° Southwest 185 213 1,100 -600 Descending Jacksonville Center
Fri 03:02:29 PM 31.5186 -84.2086 81° East 65 75 600 -500 Descending Jacksonville Center

Login

Don't have an account? Register now (free) for customized features, flight alerts, and more!